sensor_id;sensor_type;location;lat;lon;timestamp;P1;durP1;ratioP1;P2;durP2;ratioP2
13879;SDS011;7010;48.200;16.332;2023-04-15T00:01:12;0.45;;;0.45;;
13879;SDS011;7010;48.200;16.332;2023-04-15T00:03:45;0.75;;;0.75;;
13879;SDS011;7010;48.200;16.332;2023-04-15T00:06:14;0.32;;;0.32;;
13879;SDS011;7010;48.200;16.332;2023-04-15T00:08:42;0.55;;;0.55;;
13879;SDS011;7010;48.200;16.332;2023-04-15T00:11:12;0.68;;;0.68;;
13879;SDS011;7010;48.200;16.332;2023-04-15T00:13:41;0.70;;;0.70;;
13879;SDS011;7010;48.200;16.332;2023-04-15T00:16:10;0.30;;;0.30;;
13879;SDS011;7010;48.200;16.332;2023-04-15T00:18:39;0.65;;;0.65;;
13879;SDS011;7010;48.200;16.332;2023-04-15T00:21:07;0.70;;;0.70;;
13879;SDS011;7010;48.200;16.332;2023-04-15T00:23:36;0.40;;;0.40;;
13879;SDS011;7010;48.200;16.332;2023-04-15T00:26:04;0.73;;;0.70;;
13879;SDS011;7010;48.200;16.332;2023-04-15T00:28:34;1.13;;;0.80;;
13879;SDS011;7010;48.200;16.332;2023-04-15T00:31:04;0.70;;;0.70;;
13879;SDS011;7010;48.200;16.332;2023-04-15T00:33:32;0.75;;;0.75;;
13879;SDS011;7010;48.200;16.332;2023-04-15T00:36:02;0.40;;;0.40;;
13879;SDS011;7010;48.200;16.332;2023-04-15T00:38:31;0.60;;;0.60;;
13879;SDS011;7010;48.200;16.332;2023-04-15T00:40:59;0.30;;;0.30;;
13879;SDS011;7010;48.200;16.332;2023-04-15T00:43:29;0.52;;;0.52;;
13879;SDS011;7010;48.200;16.332;2023-04-15T00:45:59;0.40;;;0.40;;
13879;SDS011;7010;48.200;16.332;2023-04-15T00:48:29;0.40;;;0.40;;
13879;SDS011;7010;48.200;16.332;2023-04-15T00:50:58;0.60;;;0.60;;
13879;SDS011;7010;48.200;16.332;2023-04-15T00:53:26;0.28;;;0.28;;
13879;SDS011;7010;48.200;16.332;2023-04-15T00:55:55;0.60;;;0.60;;
13879;SDS011;7010;48.200;16.332;2023-04-15T00:58:23;0.52;;;0.52;;
13879;SDS011;7010;48.200;16.332;2023-04-15T01:00:53;0.60;;;0.60;;
13879;SDS011;7010;48.200;16.332;2023-04-15T01:03:25;0.75;;;0.75;;
13879;SDS011;7010;48.200;16.332;2023-04-15T01:05:53;0.65;;;0.30;;
13879;SDS011;7010;48.200;16.332;2023-04-15T01:08:25;0.52;;;0.52;;
13879;SDS011;7010;48.200;16.332;2023-04-15T01:10:54;0.57;;;0.57;;
13879;SDS011;7010;48.200;16.332;2023-04-15T01:13:23;0.20;;;0.20;;
13879;SDS011;7010;48.200;16.332;2023-04-15T01:15:52;0.50;;;0.50;;
13879;SDS011;7010;48.200;16.332;2023-04-15T01:18:22;0.77;;;0.77;;
13879;SDS011;7010;48.200;16.332;2023-04-15T01:20:52;0.38;;;0.38;;
13879;SDS011;7010;48.200;16.332;2023-04-15T01:23:20;0.63;;;0.63;;
13879;SDS011;7010;48.200;16.332;2023-04-15T01:25:54;0.80;;;0.80;;
13879;SDS011;7010;48.200;16.332;2023-04-15T01:28:23;0.73;;;0.73;;
13879;SDS011;7010;48.200;16.332;2023-04-15T01:31:03;0.90;;;0.90;;
13879;SDS011;7010;48.200;16.332;2023-04-15T01:33:34;0.60;;;0.60;;
13879;SDS011;7010;48.200;16.332;2023-04-15T01:36:03;1.20;;;1.00;;
13879;SDS011;7010;48.200;16.332;2023-04-15T01:38:33;1.05;;;0.80;;
13879;SDS011;7010;48.200;16.332;2023-04-15T01:41:04;0.90;;;0.90;;
13879;SDS011;7010;48.200;16.332;2023-04-15T01:43:33;0.60;;;0.60;;
13879;SDS011;7010;48.200;16.332;2023-04-15T01:46:02;1.02;;;1.02;;
13879;SDS011;7010;48.200;16.332;2023-04-15T01:48:31;0.60;;;0.60;;
13879;SDS011;7010;48.200;16.332;2023-04-15T01:51:00;0.65;;;0.65;;
13879;SDS011;7010;48.200;16.332;2023-04-15T01:53:28;0.80;;;0.80;;
13879;SDS011;7010;48.200;16.332;2023-04-15T01:55:57;1.02;;;1.02;;
13879;SDS011;7010;48.200;16.332;2023-04-15T01:58:26;0.75;;;0.75;;
13879;SDS011;7010;48.200;16.332;2023-04-15T02:00:55;0.90;;;0.90;;
13879;SDS011;7010;48.200;16.332;2023-04-15T02:03:23;1.00;;;1.00;;
13879;SDS011;7010;48.200;16.332;2023-04-15T02:05:53;1.17;;;1.08;;
13879;SDS011;7010;48.200;16.332;2023-04-15T02:08:22;1.05;;;1.05;;
13879;SDS011;7010;48.200;16.332;2023-04-15T02:10:50;1.00;;;1.00;;
13879;SDS011;7010;48.200;16.332;2023-04-15T02:13:18;1.23;;;1.17;;
13879;SDS011;7010;48.200;16.332;2023-04-15T02:15:48;1.83;;;1.10;;
13879;SDS011;7010;48.200;16.332;2023-04-15T02:18:17;0.80;;;0.80;;
13879;SDS011;7010;48.200;16.332;2023-04-15T02:20:46;1.20;;;1.20;;
13879;SDS011;7010;48.200;16.332;2023-04-15T02:23:18;1.05;;;1.05;;
13879;SDS011;7010;48.200;16.332;2023-04-15T02:25:46;1.15;;;1.15;;
13879;SDS011;7010;48.200;16.332;2023-04-15T02:28:19;1.58;;;1.48;;
13879;SDS011;7010;48.200;16.332;2023-04-15T02:30:49;0.90;;;0.90;;
13879;SDS011;7010;48.200;16.332;2023-04-15T02:33:20;0.95;;;0.95;;
13879;SDS011;7010;48.200;16.332;2023-04-15T02:35:48;3.20;;;1.10;;
13879;SDS011;7010;48.200;16.332;2023-04-15T02:38:18;0.73;;;0.73;;
13879;SDS011;7010;48.200;16.332;2023-04-15T02:40:46;0.70;;;0.70;;
13879;SDS011;7010;48.200;16.332;2023-04-15T02:43:16;0.70;;;0.70;;
13879;SDS011;7010;48.200;16.332;2023-04-15T02:45:44;1.27;;;0.98;;
13879;SDS011;7010;48.200;16.332;2023-04-15T02:48:15;0.90;;;0.90;;
13879;SDS011;7010;48.200;16.332;2023-04-15T02:50:45;1.17;;;1.17;;
13879;SDS011;7010;48.200;16.332;2023-04-15T02:53:14;0.73;;;0.73;;
13879;SDS011;7010;48.200;16.332;2023-04-15T02:55:43;0.68;;;0.68;;
13879;SDS011;7010;48.200;16.332;2023-04-15T02:58:11;0.98;;;0.98;;
13879;SDS011;7010;48.200;16.332;2023-04-15T03:00:40;0.90;;;0.90;;
13879;SDS011;7010;48.200;16.332;2023-04-15T03:03:08;1.02;;;1.02;;
13879;SDS011;7010;48.200;16.332;2023-04-15T03:05:38;3.33;;;1.92;;
13879;SDS011;7010;48.200;16.332;2023-04-15T03:08:07;0.85;;;0.85;;
13879;SDS011;7010;48.200;16.332;2023-04-15T03:10:35;0.80;;;0.80;;
13879;SDS011;7010;48.200;16.332;2023-04-15T03:13:04;0.95;;;0.95;;
13879;SDS011;7010;48.200;16.332;2023-04-15T03:15:32;0.73;;;0.73;;
13879;SDS011;7010;48.200;16.332;2023-04-15T03:18:01;0.90;;;0.90;;
13879;SDS011;7010;48.200;16.332;2023-04-15T03:20:30;0.98;;;0.70;;
13879;SDS011;7010;48.200;16.332;2023-04-15T03:23:00;0.70;;;0.70;;
13879;SDS011;7010;48.200;16.332;2023-04-15T03:25:29;0.90;;;0.90;;
13879;SDS011;7010;48.200;16.332;2023-04-15T03:27:58;0.82;;;0.82;;
13879;SDS011;7010;48.200;16.332;2023-04-15T03:30:27;0.80;;;0.80;;
13879;SDS011;7010;48.200;16.332;2023-04-15T03:32:55;0.98;;;0.98;;
13879;SDS011;7010;48.200;16.332;2023-04-15T03:35:23;0.93;;;0.93;;
13879;SDS011;7010;48.200;16.332;2023-04-15T03:37:52;1.17;;;0.90;;
13879;SDS011;7010;48.200;16.332;2023-04-15T03:40:22;0.75;;;0.75;;
13879;SDS011;7010;48.200;16.332;2023-04-15T03:42:51;1.20;;;1.20;;
13879;SDS011;7010;48.200;16.332;2023-04-15T03:45:19;0.68;;;0.68;;
13879;SDS011;7010;48.200;16.332;2023-04-15T03:47:47;0.80;;;0.80;;
13879;SDS011;7010;48.200;16.332;2023-04-15T03:50:16;1.67;;;1.58;;
13879;SDS011;7010;48.200;16.332;2023-04-15T03:52:45;0.75;;;0.75;;
13879;SDS011;7010;48.200;16.332;2023-04-15T03:55:16;1.35;;;1.25;;
13879;SDS011;7010;48.200;16.332;2023-04-15T03:57:46;0.90;;;0.90;;
13879;SDS011;7010;48.200;16.332;2023-04-15T04:00:14;0.93;;;0.93;;
13879;SDS011;7010;48.200;16.332;2023-04-15T04:02:43;1.60;;;1.50;;
13879;SDS011;7010;48.200;16.332;2023-04-15T04:05:11;0.90;;;0.90;;
13879;SDS011;7010;48.200;16.332;2023-04-15T04:07:40;1.00;;;1.00;;
13879;SDS011;7010;48.200;16.332;2023-04-15T04:10:08;0.90;;;0.90;;
13879;SDS011;7010;48.200;16.332;2023-04-15T04:12:37;1.33;;;1.23;;
13879;SDS011;7010;48.200;16.332;2023-04-15T04:15:08;1.50;;;1.40;;
13879;SDS011;7010;48.200;16.332;2023-04-15T04:17:36;1.08;;;1.08;;
13879;SDS011;7010;48.200;16.332;2023-04-15T04:20:06;1.15;;;1.10;;
13879;SDS011;7010;48.200;16.332;2023-04-15T04:22:36;1.10;;;1.10;;
13879;SDS011;7010;48.200;16.332;2023-04-15T04:25:06;3.80;;;1.45;;
13879;SDS011;7010;48.200;16.332;2023-04-15T04:27:35;0.77;;;0.77;;
13879;SDS011;7010;48.200;16.332;2023-04-15T04:30:04;1.50;;;1.00;;
13879;SDS011;7010;48.200;16.332;2023-04-15T04:32:35;0.73;;;0.73;;
13879;SDS011;7010;48.200;16.332;2023-04-15T04:35:03;1.23;;;1.13;;
13879;SDS011;7010;48.200;16.332;2023-04-15T04:37:32;0.88;;;0.88;;
13879;SDS011;7010;48.200;16.332;2023-04-15T04:40:00;1.00;;;1.00;;
13879;SDS011;7010;48.200;16.332;2023-04-15T04:42:29;0.85;;;0.85;;
13879;SDS011;7010;48.200;16.332;2023-04-15T04:44:58;0.98;;;0.98;;
13879;SDS011;7010;48.200;16.332;2023-04-15T04:47:26;1.00;;;1.00;;
13879;SDS011;7010;48.200;16.332;2023-04-15T04:49:57;1.02;;;1.02;;
13879;SDS011;7010;48.200;16.332;2023-04-15T04:52:25;1.00;;;1.00;;
13879;SDS011;7010;48.200;16.332;2023-04-15T04:54:54;1.52;;;1.42;;
13879;SDS011;7010;48.200;16.332;2023-04-15T04:57:22;1.58;;;1.48;;
13879;SDS011;7010;48.200;16.332;2023-04-15T04:59:51;1.95;;;1.80;;
13879;SDS011;7010;48.200;16.332;2023-04-15T05:02:19;1.80;;;1.70;;
13879;SDS011;7010;48.200;16.332;2023-04-15T05:04:48;1.92;;;1.83;;
13879;SDS011;7010;48.200;16.332;2023-04-15T05:07:21;1.90;;;1.80;;
13879;SDS011;7010;48.200;16.332;2023-04-15T05:09:49;2.75;;;2.17;;
13879;SDS011;7010;48.200;16.332;2023-04-15T05:12:18;2.42;;;2.28;;
13879;SDS011;7010;48.200;16.332;2023-04-15T05:14:46;2.55;;;2.35;;
13879;SDS011;7010;48.200;16.332;2023-04-15T05:17:15;3.17;;;2.97;;
13879;SDS011;7010;48.200;16.332;2023-04-15T05:19:43;2.47;;;2.38;;
13879;SDS011;7010;48.200;16.332;2023-04-15T05:22:11;11.65;;;2.88;;
13879;SDS011;7010;48.200;16.332;2023-04-15T05:24:41;3.00;;;2.63;;
13879;SDS011;7010;48.200;16.332;2023-04-15T05:27:10;3.30;;;3.00;;
13879;SDS011;7010;48.200;16.332;2023-04-15T05:29:38;2.33;;;2.22;;
13879;SDS011;7010;48.200;16.332;2023-04-15T05:32:07;3.25;;;2.95;;
13879;SDS011;7010;48.200;16.332;2023-04-15T05:34:36;3.20;;;3.00;;
13879;SDS011;7010;48.200;16.332;2023-04-15T05:37:04;2.92;;;2.72;;
13879;SDS011;7010;48.200;16.332;2023-04-15T05:39:33;3.30;;;3.00;;
13879;SDS011;7010;48.200;16.332;2023-04-15T05:42:03;2.60;;;2.40;;
13879;SDS011;7010;48.200;16.332;2023-04-15T05:44:32;2.97;;;2.78;;
13879;SDS011;7010;48.200;16.332;2023-04-15T05:47:00;2.85;;;2.65;;
13879;SDS011;7010;48.200;16.332;2023-04-15T05:49:29;3.17;;;2.90;;
13879;SDS011;7010;48.200;16.332;2023-04-15T05:51:58;4.05;;;3.58;;
13879;SDS011;7010;48.200;16.332;2023-04-15T05:54:26;2.92;;;2.72;;
13879;SDS011;7010;48.200;16.332;2023-04-15T05:56:54;2.88;;;2.67;;
13879;SDS011;7010;48.200;16.332;2023-04-15T05:59:25;2.83;;;2.63;;
13879;SDS011;7010;48.200;16.332;2023-04-15T06:01:53;2.80;;;2.60;;
13879;SDS011;7010;48.200;16.332;2023-04-15T06:04:22;2.67;;;2.47;;
13879;SDS011;7010;48.200;16.332;2023-04-15T06:06:51;2.10;;;2.00;;
13879;SDS011;7010;48.200;16.332;2023-04-15T06:09:20;2.70;;;2.50;;
13879;SDS011;7010;48.200;16.332;2023-04-15T06:11:48;3.53;;;3.20;;
13879;SDS011;7010;48.200;16.332;2023-04-15T06:14:17;2.65;;;2.45;;
13879;SDS011;7010;48.200;16.332;2023-04-15T06:16:46;2.28;;;2.17;;
13879;SDS011;7010;48.200;16.332;2023-04-15T06:19:15;2.63;;;2.40;;
13879;SDS011;7010;48.200;16.332;2023-04-15T06:21:43;2.33;;;2.22;;
13879;SDS011;7010;48.200;16.332;2023-04-15T06:24:12;4.40;;;3.05;;
13879;SDS011;7010;48.200;16.332;2023-04-15T06:26:41;2.50;;;2.35;;
13879;SDS011;7010;48.200;16.332;2023-04-15T06:29:09;2.70;;;2.50;;
13879;SDS011;7010;48.200;16.332;2023-04-15T06:31:37;2.45;;;2.35;;
13879;SDS011;7010;48.200;16.332;2023-04-15T06:34:08;2.95;;;2.75;;
13879;SDS011;7010;48.200;16.332;2023-04-15T06:36:36;2.90;;;2.63;;
13879;SDS011;7010;48.200;16.332;2023-04-15T06:39:05;2.92;;;2.63;;
13879;SDS011;7010;48.200;16.332;2023-04-15T06:41:33;5.18;;;3.60;;
13879;SDS011;7010;48.200;16.332;2023-04-15T06:44:01;4.03;;;3.53;;
13879;SDS011;7010;48.200;16.332;2023-04-15T06:46:30;3.10;;;2.78;;
13879;SDS011;7010;48.200;16.332;2023-04-15T06:48:58;3.58;;;3.33;;
13879;SDS011;7010;48.200;16.332;2023-04-15T06:51:28;4.85;;;3.65;;
13879;SDS011;7010;48.200;16.332;2023-04-15T06:53:58;2.67;;;2.53;;
13879;SDS011;7010;48.200;16.332;2023-04-15T06:56:26;25.27;;;5.00;;
13879;SDS011;7010;48.200;16.332;2023-04-15T06:58:55;3.20;;;2.90;;
13879;SDS011;7010;48.200;16.332;2023-04-15T07:01:23;3.90;;;3.45;;
13879;SDS011;7010;48.200;16.332;2023-04-15T07:03:52;3.88;;;3.58;;
13879;SDS011;7010;48.200;16.332;2023-04-15T07:06:20;3.25;;;2.95;;
13879;SDS011;7010;48.200;16.332;2023-04-15T07:08:50;3.67;;;3.38;;
13879;SDS011;7010;48.200;16.332;2023-04-15T07:11:18;3.10;;;2.88;;
13879;SDS011;7010;48.200;16.332;2023-04-15T07:13:47;3.35;;;3.15;;
13879;SDS011;7010;48.200;16.332;2023-04-15T07:16:15;3.40;;;3.10;;
13879;SDS011;7010;48.200;16.332;2023-04-15T07:18:44;3.28;;;3.08;;
13879;SDS011;7010;48.200;16.332;2023-04-15T07:21:13;3.15;;;2.85;;
13879;SDS011;7010;48.200;16.332;2023-04-15T07:23:42;2.83;;;2.63;;
13879;SDS011;7010;48.200;16.332;2023-04-15T07:26:12;3.15;;;2.95;;
13879;SDS011;7010;48.200;16.332;2023-04-15T07:28:40;3.83;;;3.53;;
13879;SDS011;7010;48.200;16.332;2023-04-15T07:31:09;3.60;;;3.30;;
13879;SDS011;7010;48.200;16.332;2023-04-15T07:33:37;3.08;;;2.88;;
13879;SDS011;7010;48.200;16.332;2023-04-15T07:36:05;3.63;;;3.33;;
13879;SDS011;7010;48.200;16.332;2023-04-15T07:38:34;3.72;;;3.42;;
13879;SDS011;7010;48.200;16.332;2023-04-15T07:41:03;3.90;;;2.85;;
13879;SDS011;7010;48.200;16.332;2023-04-15T07:43:33;3.83;;;3.42;;
13879;SDS011;7010;48.200;16.332;2023-04-15T07:46:01;3.42;;;3.22;;
13879;SDS011;7010;48.200;16.332;2023-04-15T07:48:29;3.42;;;3.17;;
13879;SDS011;7010;48.200;16.332;2023-04-15T07:51:00;5.22;;;3.65;;
13879;SDS011;7010;48.200;16.332;2023-04-15T07:53:29;2.60;;;2.40;;
13879;SDS011;7010;48.200;16.332;2023-04-15T07:55:58;3.95;;;3.65;;
13879;SDS011;7010;48.200;16.332;2023-04-15T07:58:26;3.58;;;3.28;;
13879;SDS011;7010;48.200;16.332;2023-04-15T08:00:56;5.05;;;3.28;;
13879;SDS011;7010;48.200;16.332;2023-04-15T08:03:25;3.25;;;3.05;;
13879;SDS011;7010;48.200;16.332;2023-04-15T08:05:54;4.03;;;3.60;;
13879;SDS011;7010;48.200;16.332;2023-04-15T08:08:23;2.92;;;2.72;;
13879;SDS011;7010;48.200;16.332;2023-04-15T08:10:51;2.65;;;2.45;;
13879;SDS011;7010;48.200;16.332;2023-04-15T08:13:20;2.63;;;2.42;;
13879;SDS011;7010;48.200;16.332;2023-04-15T08:15:52;2.85;;;2.65;;
13879;SDS011;7010;48.200;16.332;2023-04-15T08:18:42;2.50;;;2.30;;
13879;SDS011;7010;48.200;16.332;2023-04-15T08:21:10;3.55;;;2.75;;
13879;SDS011;7010;48.200;16.332;2023-04-15T08:23:39;2.33;;;2.22;;
13879;SDS011;7010;48.200;16.332;2023-04-15T08:26:08;2.95;;;2.75;;
13879;SDS011;7010;48.200;16.332;2023-04-15T08:28:36;3.40;;;3.10;;
13879;SDS011;7010;48.200;16.332;2023-04-15T08:31:06;2.50;;;2.40;;
13879;SDS011;7010;48.200;16.332;2023-04-15T08:33:35;2.90;;;2.70;;
13879;SDS011;7010;48.200;16.332;2023-04-15T08:36:05;2.30;;;2.13;;
13879;SDS011;7010;48.200;16.332;2023-04-15T08:38:34;2.35;;;2.25;;
13879;SDS011;7010;48.200;16.332;2023-04-15T08:41:05;2.30;;;2.17;;
13879;SDS011;7010;48.200;16.332;2023-04-15T08:43:39;2.72;;;2.53;;
13879;SDS011;7010;48.200;16.332;2023-04-15T08:46:14;1.88;;;1.77;;
13879;SDS011;7010;48.200;16.332;2023-04-15T08:48:43;2.28;;;2.17;;
13879;SDS011;7010;48.200;16.332;2023-04-15T08:51:16;2.05;;;1.90;;
13879;SDS011;7010;48.200;16.332;2023-04-15T08:53:45;2.30;;;2.20;;
13879;SDS011;7010;48.200;16.332;2023-04-15T08:56:14;2.45;;;2.28;;
13879;SDS011;7010;48.200;16.332;2023-04-15T08:58:43;2.50;;;2.30;;
13879;SDS011;7010;48.200;16.332;2023-04-15T09:01:13;2.10;;;2.00;;
13879;SDS011;7010;48.200;16.332;2023-04-15T09:03:42;1.80;;;1.70;;
13879;SDS011;7010;48.200;16.332;2023-04-15T09:06:11;1.77;;;1.52;;
13879;SDS011;7010;48.200;16.332;2023-04-15T09:08:41;1.02;;;1.02;;
13879;SDS011;7010;48.200;16.332;2023-04-15T09:11:10;1.30;;;1.20;;
13879;SDS011;7010;48.200;16.332;2023-04-15T09:13:38;2.47;;;2.28;;
13879;SDS011;7010;48.200;16.332;2023-04-15T09:16:07;1.38;;;1.27;;
13879;SDS011;7010;48.200;16.332;2023-04-15T09:18:37;1.30;;;1.20;;
13879;SDS011;7010;48.200;16.332;2023-04-15T09:21:06;1.50;;;1.40;;
13879;SDS011;7010;48.200;16.332;2023-04-15T09:23:37;1.70;;;1.60;;
13879;SDS011;7010;48.200;16.332;2023-04-15T09:26:08;1.13;;;1.08;;
13879;SDS011;7010;48.200;16.332;2023-04-15T09:28:41;1.50;;;1.40;;
13879;SDS011;7010;48.200;16.332;2023-04-15T09:31:09;1.30;;;1.20;;
13879;SDS011;7010;48.200;16.332;2023-04-15T09:33:52;1.00;;;1.00;;
13879;SDS011;7010;48.200;16.332;2023-04-15T09:36:26;0.75;;;0.75;;
13879;SDS011;7010;48.200;16.332;2023-04-15T09:38:56;2.78;;;1.88;;
13879;SDS011;7010;48.200;16.332;2023-04-15T09:41:27;1.48;;;1.40;;
13879;SDS011;7010;48.200;16.332;2023-04-15T09:43:56;1.40;;;1.30;;
13879;SDS011;7010;48.200;16.332;2023-04-15T09:46:39;1.50;;;1.40;;
13879;SDS011;7010;48.200;16.332;2023-04-15T09:49:09;0.55;;;0.55;;
13879;SDS011;7010;48.200;16.332;2023-04-15T09:51:38;1.05;;;1.02;;
13879;SDS011;7010;48.200;16.332;2023-04-15T09:54:17;1.25;;;1.20;;
13879;SDS011;7010;48.200;16.332;2023-04-15T09:56:48;0.80;;;0.80;;
13879;SDS011;7010;48.200;16.332;2023-04-15T09:59:16;1.23;;;1.08;;
13879;SDS011;7010;48.200;16.332;2023-04-15T10:01:46;1.00;;;1.00;;
13879;SDS011;7010;48.200;16.332;2023-04-15T10:04:15;0.70;;;0.70;;
13879;SDS011;7010;48.200;16.332;2023-04-15T10:06:44;0.80;;;0.68;;
13879;SDS011;7010;48.200;16.332;2023-04-15T10:09:12;0.40;;;0.40;;
13879;SDS011;7010;48.200;16.332;2023-04-15T10:11:40;1.08;;;1.02;;
13879;SDS011;7010;48.200;16.332;2023-04-15T10:14:11;2.47;;;1.38;;
13879;SDS011;7010;48.200;16.332;2023-04-15T10:16:42;1.30;;;1.20;;
13879;SDS011;7010;48.200;16.332;2023-04-15T10:19:15;1.50;;;1.40;;
13879;SDS011;7010;48.200;16.332;2023-04-15T10:21:48;0.95;;;0.95;;
13879;SDS011;7010;48.200;16.332;2023-04-15T10:24:17;1.25;;;1.15;;
13879;SDS011;7010;48.200;16.332;2023-04-15T10:26:46;1.48;;;1.38;;
13879;SDS011;7010;48.200;16.332;2023-04-15T10:29:16;1.30;;;1.05;;
13879;SDS011;7010;48.200;16.332;2023-04-15T10:31:45;0.60;;;0.60;;
13879;SDS011;7010;48.200;16.332;2023-04-15T10:37:47;1.00;;;1.00;;
13879;SDS011;7010;48.200;16.332;2023-04-15T10:40:25;0.70;;;0.70;;
13879;SDS011;7010;48.200;16.332;2023-04-15T10:42:57;0.40;;;0.40;;
13879;SDS011;7010;48.200;16.332;2023-04-15T10:45:31;0.80;;;0.80;;
13879;SDS011;7010;48.200;16.332;2023-04-15T10:48:02;0.90;;;0.90;;
13879;SDS011;7010;48.200;16.332;2023-04-15T10:50:34;1.20;;;1.17;;
13879;SDS011;7010;48.200;16.332;2023-04-15T10:53:04;1.10;;;1.00;;
13879;SDS011;7010;48.200;16.332;2023-04-15T10:55:36;0.90;;;0.90;;
13879;SDS011;7010;48.200;16.332;2023-04-15T10:58:05;0.80;;;0.80;;
13879;SDS011;7010;48.200;16.332;2023-04-15T11:00:37;0.80;;;0.80;;
13879;SDS011;7010;48.200;16.332;2023-04-15T11:03:06;1.95;;;1.33;;
13879;SDS011;7010;48.200;16.332;2023-04-15T11:05:49;0.77;;;0.77;;
13879;SDS011;7010;48.200;16.332;2023-04-15T11:08:18;0.70;;;0.70;;
13879;SDS011;7010;48.200;16.332;2023-04-15T11:11:07;0.38;;;0.38;;
13879;SDS011;7010;48.200;16.332;2023-04-15T11:13:35;0.65;;;0.65;;
13879;SDS011;7010;48.200;16.332;2023-04-15T11:16:17;0.43;;;0.43;;
13879;SDS011;7010;48.200;16.332;2023-04-15T11:18:52;1.17;;;1.13;;
13879;SDS011;7010;48.200;16.332;2023-04-15T11:21:23;0.50;;;0.50;;
13879;SDS011;7010;48.200;16.332;2023-04-15T11:23:53;0.77;;;0.77;;
13879;SDS011;7010;48.200;16.332;2023-04-15T11:26:24;1.60;;;0.88;;
13879;SDS011;7010;48.200;16.332;2023-04-15T11:28:52;0.80;;;0.80;;
13879;SDS011;7010;48.200;16.332;2023-04-15T11:31:22;0.90;;;0.90;;
13879;SDS011;7010;48.200;16.332;2023-04-15T11:33:55;0.98;;;0.98;;
13879;SDS011;7010;48.200;16.332;2023-04-15T11:36:25;0.55;;;0.55;;
13879;SDS011;7010;48.200;16.332;2023-04-15T11:38:55;0.93;;;0.93;;
13879;SDS011;7010;48.200;16.332;2023-04-15T11:41:25;1.73;;;1.00;;
13879;SDS011;7010;48.200;16.332;2023-04-15T11:43:53;0.68;;;0.68;;
13879;SDS011;7010;48.200;16.332;2023-04-15T11:46:27;1.73;;;1.63;;
13879;SDS011;7010;48.200;16.332;2023-04-15T11:52:53;0.80;;;0.80;;
13879;SDS011;7010;48.200;16.332;2023-04-15T11:55:22;1.10;;;1.00;;
13879;SDS011;7010;48.200;16.332;2023-04-15T11:58:04;3.20;;;0.77;;
13879;SDS011;7010;48.200;16.332;2023-04-15T12:00:40;0.82;;;0.82;;
13879;SDS011;7010;48.200;16.332;2023-04-15T12:03:20;1.63;;;1.52;;
13879;SDS011;7010;48.200;16.332;2023-04-15T12:06:10;0.75;;;0.75;;
13879;SDS011;7010;48.200;16.332;2023-04-15T12:08:51;1.50;;;1.40;;
13879;SDS011;7010;48.200;16.332;2023-04-15T12:11:30;1.52;;;1.42;;
13879;SDS011;7010;48.200;16.332;2023-04-15T12:14:10;0.68;;;0.68;;
13879;SDS011;7010;48.200;16.332;2023-04-15T12:16:54;0.90;;;0.90;;
13879;SDS011;7010;48.200;16.332;2023-04-15T12:19:34;0.40;;;0.32;;
13879;SDS011;7010;48.200;16.332;2023-04-15T12:22:09;0.90;;;0.75;;
13879;SDS011;7010;48.200;16.332;2023-04-15T12:24:38;0.63;;;0.63;;
13879;SDS011;7010;48.200;16.332;2023-04-15T12:27:09;0.60;;;0.60;;
13879;SDS011;7010;48.200;16.332;2023-04-15T12:29:40;0.50;;;0.50;;
13879;SDS011;7010;48.200;16.332;2023-04-15T12:32:10;0.60;;;0.60;;
13879;SDS011;7010;48.200;16.332;2023-04-15T12:34:41;1.50;;;1.05;;
13879;SDS011;7010;48.200;16.332;2023-04-15T12:37:12;0.82;;;0.65;;
13879;SDS011;7010;48.200;16.332;2023-04-15T12:39:42;1.27;;;1.23;;
13879;SDS011;7010;48.200;16.332;2023-04-15T12:42:11;1.92;;;1.83;;
13879;SDS011;7010;48.200;16.332;2023-04-15T12:44:40;3.03;;;1.50;;
13879;SDS011;7010;48.200;16.332;2023-04-15T12:47:09;0.70;;;0.70;;
13879;SDS011;7010;48.200;16.332;2023-04-15T12:49:38;0.57;;;0.57;;
13879;SDS011;7010;48.200;16.332;2023-04-15T12:52:08;0.90;;;0.90;;
13879;SDS011;7010;48.200;16.332;2023-04-15T12:54:37;0.90;;;0.90;;
13879;SDS011;7010;48.200;16.332;2023-04-15T12:57:06;1.35;;;0.80;;
13879;SDS011;7010;48.200;16.332;2023-04-15T12:59:37;9.18;;;1.23;;
13879;SDS011;7010;48.200;16.332;2023-04-15T13:02:06;0.73;;;0.70;;
13879;SDS011;7010;48.200;16.332;2023-04-15T13:04:35;0.52;;;0.52;;
13879;SDS011;7010;48.200;16.332;2023-04-15T13:07:03;0.47;;;0.47;;
13879;SDS011;7010;48.200;16.332;2023-04-15T13:09:33;0.50;;;0.50;;
13879;SDS011;7010;48.200;16.332;2023-04-15T13:12:01;0.55;;;0.55;;
13879;SDS011;7010;48.200;16.332;2023-04-15T13:14:30;0.80;;;0.80;;
13879;SDS011;7010;48.200;16.332;2023-04-15T13:16:59;0.85;;;0.80;;
13879;SDS011;7010;48.200;16.332;2023-04-15T13:19:29;2.75;;;0.80;;
13879;SDS011;7010;48.200;16.332;2023-04-15T13:21:58;1.45;;;1.25;;
13879;SDS011;7010;48.200;16.332;2023-04-15T13:24:27;0.95;;;0.77;;
13879;SDS011;7010;48.200;16.332;2023-04-15T13:26:57;0.60;;;0.60;;
13879;SDS011;7010;48.200;16.332;2023-04-15T13:29:25;0.93;;;0.93;;
13879;SDS011;7010;48.200;16.332;2023-04-15T13:31:54;0.80;;;0.80;;
13879;SDS011;7010;48.200;16.332;2023-04-15T13:34:22;1.33;;;1.23;;
13879;SDS011;7010;48.200;16.332;2023-04-15T13:36:51;0.40;;;0.40;;
13879;SDS011;7010;48.200;16.332;2023-04-15T13:39:20;0.57;;;0.57;;
13879;SDS011;7010;48.200;16.332;2023-04-15T13:41:48;0.52;;;0.52;;
13879;SDS011;7010;48.200;16.332;2023-04-15T13:44:18;1.30;;;0.80;;
13879;SDS011;7010;48.200;16.332;2023-04-15T13:46:47;0.77;;;0.77;;
13879;SDS011;7010;48.200;16.332;2023-04-15T13:51:49;1.05;;;1.05;;
13879;SDS011;7010;48.200;16.332;2023-04-15T13:54:18;0.73;;;0.73;;
13879;SDS011;7010;48.200;16.332;2023-04-15T13:56:46;1.35;;;1.00;;
13879;SDS011;7010;48.200;16.332;2023-04-15T13:59:15;0.45;;;0.45;;
13879;SDS011;7010;48.200;16.332;2023-04-15T14:01:45;0.40;;;0.40;;
13879;SDS011;7010;48.200;16.332;2023-04-15T14:04:13;0.43;;;0.43;;
13879;SDS011;7010;48.200;16.332;2023-04-15T14:06:42;0.50;;;0.50;;
13879;SDS011;7010;48.200;16.332;2023-04-15T14:09:11;0.68;;;0.68;;
13879;SDS011;7010;48.200;16.332;2023-04-15T14:11:39;0.70;;;0.70;;
13879;SDS011;7010;48.200;16.332;2023-04-15T14:14:07;1.42;;;0.85;;
13879;SDS011;7010;48.200;16.332;2023-04-15T14:16:36;0.52;;;0.52;;
13879;SDS011;7010;48.200;16.332;2023-04-15T14:19:06;0.70;;;0.70;;
13879;SDS011;7010;48.200;16.332;2023-04-15T14:21:35;0.55;;;0.55;;
13879;SDS011;7010;48.200;16.332;2023-04-15T14:24:05;0.43;;;0.43;;
13879;SDS011;7010;48.200;16.332;2023-04-15T14:26:33;0.60;;;0.60;;
13879;SDS011;7010;48.200;16.332;2023-04-15T14:29:02;0.80;;;0.80;;
13879;SDS011;7010;48.200;16.332;2023-04-15T14:31:31;0.63;;;0.63;;
13879;SDS011;7010;48.200;16.332;2023-04-15T14:33:59;1.65;;;1.45;;
13879;SDS011;7010;48.200;16.332;2023-04-15T14:36:30;0.80;;;0.80;;
13879;SDS011;7010;48.200;16.332;2023-04-15T14:38:58;1.50;;;1.30;;
13879;SDS011;7010;48.200;16.332;2023-04-15T14:41:27;3.10;;;2.90;;
13879;SDS011;7010;48.200;16.332;2023-04-15T14:43:56;2.55;;;1.60;;
13879;SDS011;7010;48.200;16.332;2023-04-15T14:46:28;0.73;;;0.73;;
13879;SDS011;7010;48.200;16.332;2023-04-15T14:48:58;0.80;;;0.80;;
13879;SDS011;7010;48.200;16.332;2023-04-15T14:51:27;0.77;;;0.77;;
13879;SDS011;7010;48.200;16.332;2023-04-15T14:53:58;0.88;;;0.85;;
13879;SDS011;7010;48.200;16.332;2023-04-15T14:56:27;1.13;;;0.77;;
13879;SDS011;7010;48.200;16.332;2023-04-15T14:58:55;1.00;;;1.00;;
13879;SDS011;7010;48.200;16.332;2023-04-15T15:01:24;0.77;;;0.77;;
13879;SDS011;7010;48.200;16.332;2023-04-15T15:03:55;0.57;;;0.57;;
13879;SDS011;7010;48.200;16.332;2023-04-15T15:06:24;0.70;;;0.70;;
13879;SDS011;7010;48.200;16.332;2023-04-15T15:08:53;1.02;;;0.98;;
13879;SDS011;7010;48.200;16.332;2023-04-15T15:11:23;1.20;;;1.10;;
13879;SDS011;7010;48.200;16.332;2023-04-15T15:13:57;1.00;;;1.00;;